sensor_id;sensor_type;location;lat;lon;timestamp;pressure;altitude;pressure_sealevel;temperature;humidity
24620;BME280;12763;55.802;37.404;2023-04-09T00:02:17;100493.34;;;11.27;53.40
24620;BME280;12763;55.802;37.404;2023-04-09T00:04:43;100494.16;;;11.27;53.62
24620;BME280;12763;55.802;37.404;2023-04-09T00:07:09;100491.38;;;11.20;53.79
24620;BME280;12763;55.802;37.404;2023-04-09T00:09:35;100489.84;;;11.18;54.12
24620;BME280;12763;55.802;37.404;2023-04-09T00:12:01;100482.16;;;11.13;54.35
24620;BME280;12763;55.802;37.404;2023-04-09T00:14:28;100492.88;;;11.23;53.88
24620;BME280;12763;55.802;37.404;2023-04-09T00:16:54;100493.34;;;11.27;53.95
24620;BME280;12763;55.802;37.404;2023-04-09T00:19:19;100490.41;;;11.07;54.64
24620;BME280;12763;55.802;37.404;2023-04-09T00:21:45;100486.03;;;11.19;54.10
24620;BME280;12763;55.802;37.404;2023-04-09T00:24:11;100486.25;;;11.17;54.22
24620;BME280;12763;55.802;37.404;2023-04-09T00:26:37;100494.16;;;11.27;54.12
24620;BME280;12763;55.802;37.404;2023-04-09T00:29:03;100483.94;;;11.21;54.05
24620;BME280;12763;55.802;37.404;2023-04-09T00:31:29;100492.16;;;11.14;54.66
24620;BME280;12763;55.802;37.404;2023-04-09T00:33:54;100493.03;;;11.15;54.62
24620;BME280;12763;55.802;37.404;2023-04-09T00:36:21;100487.13;;;11.25;54.31
24620;BME280;12763;55.802;37.404;2023-04-09T00:38:46;100491.22;;;11.29;54.28
24620;BME280;12763;55.802;37.404;2023-04-09T00:41:13;100490.25;;;11.15;54.67
24620;BME280;12763;55.802;37.404;2023-04-09T00:43:38;100488.00;;;11.25;54.35
24620;BME280;12763;55.802;37.404;2023-04-09T00:46:04;100480.75;;;11.24;54.18
24620;BME280;12763;55.802;37.404;2023-04-09T00:48:30;100486.94;;;11.26;54.26
24620;BME280;12763;55.802;37.404;2023-04-09T00:50:56;100490.28;;;11.21;54.80
24620;BME280;12763;55.802;37.404;2023-04-09T00:53:22;100484.13;;;11.19;54.46
24620;BME280;12763;55.802;37.404;2023-04-09T00:55:48;100489.84;;;11.18;54.70
24620;BME280;12763;55.802;37.404;2023-04-09T00:58:14;100485.53;;;11.09;55.06
24620;BME280;12763;55.802;37.404;2023-04-09T01:00:40;100491.84;;;11.03;55.51
24620;BME280;12763;55.802;37.404;2023-04-09T01:03:06;100491.69;;;11.11;55.25
24620;BME280;12763;55.802;37.404;2023-04-09T01:05:43;100491.53;;;11.19;55.58
24620;BME280;12763;55.802;37.404;2023-04-09T01:08:32;100486.38;;;11.09;56.09
24620;BME280;12763;55.802;37.404;2023-04-09T01:16:43;100476.78;;;11.05;55.88
24620;BME280;12763;55.802;37.404;2023-04-09T01:21:51;100486.19;;;10.90;56.39
24620;BME280;12763;55.802;37.404;2023-04-09T01:24:37;100492.22;;;11.00;56.28
24620;BME280;12763;55.802;37.404;2023-04-09T01:27:09;100487.50;;;10.94;56.06
24620;BME280;12763;55.802;37.404;2023-04-09T01:29:45;100482.66;;;10.96;56.13
24620;BME280;12763;55.802;37.404;2023-04-09T01:32:15;100490.78;;;11.04;55.72
24620;BME280;12763;55.802;37.404;2023-04-09T01:34:45;100495.25;;;11.05;55.60
24620;BME280;12763;55.802;37.404;2023-04-09T01:37:13;100489.69;;;10.98;55.81
24620;BME280;12763;55.802;37.404;2023-04-09T01:39:41;100484.34;;;10.97;55.79
24620;BME280;12763;55.802;37.404;2023-04-09T01:42:08;100487.88;;;10.91;56.40
24620;BME280;12763;55.802;37.404;2023-04-09T01:44:39;100488.44;;;11.01;56.22
24620;BME280;12763;55.802;37.404;2023-04-09T01:47:07;100495.63;;;11.02;56.05
24620;BME280;12763;55.802;37.404;2023-04-09T01:49:34;100498.41;;;11.02;56.02
24620;BME280;12763;55.802;37.404;2023-04-09T01:52:01;100494.81;;;11.01;55.68
24620;BME280;12763;55.802;37.404;2023-04-09T01:54:27;100496.06;;;10.99;56.04
24620;BME280;12763;55.802;37.404;2023-04-09T01:56:53;100495.19;;;10.98;56.16
24620;BME280;12763;55.802;37.404;2023-04-09T01:59:21;100493.94;;;11.01;55.95
24620;BME280;12763;55.802;37.404;2023-04-09T02:01:52;100494.81;;;11.01;56.34
24620;BME280;12763;55.802;37.404;2023-04-09T02:04:31;100494.81;;;11.01;56.79
24620;BME280;12763;55.802;37.404;2023-04-09T02:07:08;100485.91;;;11.06;56.24
24620;BME280;12763;55.802;37.404;2023-04-09T02:09:38;100495.06;;;11.06;56.51
24620;BME280;12763;55.802;37.404;2023-04-09T02:12:05;100487.78;;;10.99;56.71
24620;BME280;12763;55.802;37.404;2023-04-09T02:14:34;100487.16;;;11.03;56.42
24620;BME280;12763;55.802;37.404;2023-04-09T02:17:01;100492.22;;;11.00;56.62
24620;BME280;12763;55.802;37.404;2023-04-09T02:19:40;100489.31;;;11.08;57.04
24620;BME280;12763;55.802;37.404;2023-04-09T02:22:10;100494.41;;;11.04;57.00
24620;BME280;12763;55.802;37.404;2023-04-09T02:24:36;100493.09;;;11.00;56.67
24620;BME280;12763;55.802;37.404;2023-04-09T02:27:02;100489.69;;;10.98;56.89
24620;BME280;12763;55.802;37.404;2023-04-09T02:29:29;100497.75;;;11.00;56.72
24620;BME280;12763;55.802;37.404;2023-04-09T02:31:55;100490.94;;;10.96;57.06
24620;BME280;12763;55.802;37.404;2023-04-09T02:34:22;100493.09;;;11.00;57.09
24620;BME280;12763;55.802;37.404;2023-04-09T02:36:48;100487.56;;;11.00;56.98
24620;BME280;12763;55.802;37.404;2023-04-09T02:39:13;100488.03;;;11.04;57.01
24620;BME280;12763;55.802;37.404;2023-04-09T02:41:39;100489.88;;;10.97;57.75
24620;BME280;12763;55.802;37.404;2023-04-09T02:44:05;100486.31;;;11.03;57.35
24620;BME280;12763;55.802;37.404;2023-04-09T02:46:31;100487.16;;;11.03;57.37
24620;BME280;12763;55.802;37.404;2023-04-09T02:48:57;100496.56;;;11.09;57.73
24620;BME280;12763;55.802;37.404;2023-04-09T02:51:22;100488.59;;;10.99;58.04
24620;BME280;12763;55.802;37.404;2023-04-09T02:53:48;100486.72;;;11.00;58.20
24620;BME280;12763;55.802;37.404;2023-04-09T02:56:14;100481.97;;;10.94;58.30
24620;BME280;12763;55.802;37.404;2023-04-09T02:58:40;100487.63;;;11.07;57.79
24620;BME280;12763;55.802;37.404;2023-04-09T03:01:06;100486.38;;;11.09;57.76
24620;BME280;12763;55.802;37.404;2023-04-09T03:03:32;100484.19;;;11.05;58.07
24620;BME280;12763;55.802;37.404;2023-04-09T03:05:58;100474.38;;;10.96;58.37
24620;BME280;12763;55.802;37.404;2023-04-09T03:08:23;100495.63;;;11.02;58.47
24620;BME280;12763;55.802;37.404;2023-04-09T03:10:49;100499.09;;;11.04;58.70
24620;BME280;12763;55.802;37.404;2023-04-09T03:13:15;100500.13;;;11.03;58.54
24620;BME280;12763;55.802;37.404;2023-04-09T03:15:41;100495.72;;;11.08;58.32
24620;BME280;12763;55.802;37.404;2023-04-09T03:18:07;100486.56;;;11.08;58.04
24620;BME280;12763;55.802;37.404;2023-04-09T03:20:37;100491.13;;;11.15;58.14
24620;BME280;12763;55.802;37.404;2023-04-09T03:23:04;100494.84;;;11.08;58.17
24620;BME280;12763;55.802;37.404;2023-04-09T03:25:35;100498.31;;;11.16;58.28
24620;BME280;12763;55.802;37.404;2023-04-09T03:28:09;100496.09;;;11.05;58.55
24620;BME280;12763;55.802;37.404;2023-04-09T03:30:40;100499.22;;;10.96;59.08
24620;BME280;12763;55.802;37.404;2023-04-09T03:33:06;100489.00;;;11.17;58.33
24620;BME280;12763;55.802;37.404;2023-04-09T03:35:38;100490.13;;;11.02;58.57
24620;BME280;12763;55.802;37.404;2023-04-09T03:38:03;100490.41;;;10.86;59.95
24620;BME280;12763;55.802;37.404;2023-04-09T03:40:30;100494.91;;;11.14;58.82
24620;BME280;12763;55.802;37.404;2023-04-09T03:42:57;100489.56;;;11.13;58.53
24620;BME280;12763;55.802;37.404;2023-04-09T03:45:23;100488.13;;;11.17;58.30
24620;BME280;12763;55.802;37.404;2023-04-09T03:47:51;100489.47;;;11.21;57.99
24620;BME280;12763;55.802;37.404;2023-04-09T03:50:21;100487.09;;;11.18;58.25
24620;BME280;12763;55.802;37.404;2023-04-09T03:52:53;100489.91;;;11.25;58.30
24620;BME280;12763;55.802;37.404;2023-04-09T03:55:19;100485.63;;;11.22;58.30
24620;BME280;12763;55.802;37.404;2023-04-09T03:57:46;100488.53;;;11.14;59.02
24620;BME280;12763;55.802;37.404;2023-04-09T04:00:16;100490.50;;;11.20;58.54
24620;BME280;12763;55.802;37.404;2023-04-09T04:03:01;100487.34;;;11.23;58.46
24620;BME280;12763;55.802;37.404;2023-04-09T04:05:46;100494.44;;;11.32;58.08
24620;BME280;12763;55.802;37.404;2023-04-09T04:08:14;100489.88;;;11.46;57.60
24620;BME280;12763;55.802;37.404;2023-04-09T04:10:40;100490.28;;;11.49;57.57
24620;BME280;12763;55.802;37.404;2023-04-09T04:13:06;100493.88;;;11.43;58.22
24620;BME280;12763;55.802;37.404;2023-04-09T04:15:46;100482.94;;;11.63;57.62
24620;BME280;12763;55.802;37.404;2023-04-09T04:18:13;100482.63;;;11.72;57.04
24620;BME280;12763;55.802;37.404;2023-04-09T04:20:46;100484.13;;;11.75;57.37
24620;BME280;12763;55.802;37.404;2023-04-09T04:23:13;100485.63;;;11.77;56.85
24620;BME280;12763;55.802;37.404;2023-04-09T04:25:57;100484.41;;;11.87;56.82
24620;BME280;12763;55.802;37.404;2023-04-09T04:28:28;100482.25;;;11.82;56.69
24620;BME280;12763;55.802;37.404;2023-04-09T04:30:54;100481.47;;;11.95;56.77
24620;BME280;12763;55.802;37.404;2023-04-09T04:33:20;100477.22;;;11.99;56.44
24620;BME280;12763;55.802;37.404;2023-04-09T04:35:50;100479.19;;;12.05;55.99
24620;BME280;12763;55.802;37.404;2023-04-09T04:38:31;100476.72;;;11.82;56.88
24620;BME280;12763;55.802;37.404;2023-04-09T04:40:59;100471.91;;;11.97;56.76
24620;BME280;12763;55.802;37.404;2023-04-09T04:43:27;100481.47;;;11.95;56.71
24620;BME280;12763;55.802;37.404;2023-04-09T04:45:56;100480.44;;;11.96;56.56
24620;BME280;12763;55.802;37.404;2023-04-09T04:48:24;100486.63;;;12.04;56.42
24620;BME280;12763;55.802;37.404;2023-04-09T04:50:58;100485.78;;;12.04;56.40
24620;BME280;12763;55.802;37.404;2023-04-09T04:53:28;100471.78;;;12.12;56.23
24620;BME280;12763;55.802;37.404;2023-04-09T04:55:56;100478.63;;;12.29;55.69
24620;BME280;12763;55.802;37.404;2023-04-09T04:58:25;100484.66;;;12.39;55.43
24620;BME280;12763;55.802;37.404;2023-04-09T05:00:55;100479.75;;;12.41;55.45
24620;BME280;12763;55.802;37.404;2023-04-09T05:03:21;100486.81;;;12.50;54.77
24620;BME280;12763;55.802;37.404;2023-04-09T05:06:01;100486.22;;;12.61;54.33
24620;BME280;12763;55.802;37.404;2023-04-09T05:08:35;100483.66;;;12.66;54.10
24620;BME280;12763;55.802;37.404;2023-04-09T05:11:00;100482.78;;;12.53;55.01
24620;BME280;12763;55.802;37.404;2023-04-09T05:13:33;100478.47;;;12.44;54.95
24620;BME280;12763;55.802;37.404;2023-04-09T05:16:02;100485.50;;;12.46;54.99
24620;BME280;12763;55.802;37.404;2023-04-09T05:18:30;100482.13;;;12.51;55.02
24620;BME280;12763;55.802;37.404;2023-04-09T05:20:56;100486.59;;;12.52;55.38
24620;BME280;12763;55.802;37.404;2023-04-09T05:23:22;100488.75;;;12.56;54.75
24620;BME280;12763;55.802;37.404;2023-04-09T05:25:49;100489.41;;;12.58;54.18
24620;BME280;12763;55.802;37.404;2023-04-09T05:28:25;100489.63;;;12.70;54.03
24620;BME280;12763;55.802;37.404;2023-04-09T05:31:01;100492.84;;;12.80;53.45
24620;BME280;12763;55.802;37.404;2023-04-09T05:33:30;100496.72;;;12.92;53.19
24620;BME280;12763;55.802;37.404;2023-04-09T05:36:04;100491.16;;;12.98;52.99
24620;BME280;12763;55.802;37.404;2023-04-09T05:38:30;100495.84;;;12.98;52.71
24620;BME280;12763;55.802;37.404;2023-04-09T05:40:58;100498.41;;;13.00;52.86
24620;BME280;12763;55.802;37.404;2023-04-09T05:43:24;100503.16;;;13.19;52.57
24620;BME280;12763;55.802;37.404;2023-04-09T05:45:50;100504.03;;;13.39;51.98
24620;BME280;12763;55.802;37.404;2023-04-09T05:48:16;100507.00;;;13.44;51.91
24620;BME280;12763;55.802;37.404;2023-04-09T05:50:51;100507.44;;;13.28;52.57
24620;BME280;12763;55.802;37.404;2023-04-09T05:53:18;100500.81;;;13.42;52.08
24620;BME280;12763;55.802;37.404;2023-04-09T05:55:45;100504.22;;;13.44;52.20
24620;BME280;12763;55.802;37.404;2023-04-09T05:58:12;100505.06;;;13.38;52.36
24620;BME280;12763;55.802;37.404;2023-04-09T06:00:38;100512.53;;;13.44;51.95
24620;BME280;12763;55.802;37.404;2023-04-09T06:03:04;100513.38;;;13.58;51.59
24620;BME280;12763;55.802;37.404;2023-04-09T06:05:30;100509.97;;;13.69;51.17
24620;BME280;12763;55.802;37.404;2023-04-09T06:07:56;100511.84;;;13.81;50.88
24620;BME280;12763;55.802;37.404;2023-04-09T06:10:22;100511.63;;;13.89;50.49
24620;BME280;12763;55.802;37.404;2023-04-09T06:12:48;100510.31;;;13.98;50.38
24620;BME280;12763;55.802;37.404;2023-04-09T06:15:14;100514.19;;;13.91;50.81
24620;BME280;12763;55.802;37.404;2023-04-09T06:17:40;100514.03;;;13.60;51.64
24620;BME280;12763;55.802;37.404;2023-04-09T06:20:06;100514.44;;;13.76;51.08
24620;BME280;12763;55.802;37.404;2023-04-09T06:22:32;100516.34;;;13.89;51.08
24620;BME280;12763;55.802;37.404;2023-04-09T06:24:58;100512.03;;;13.99;50.42
24620;BME280;12763;55.802;37.404;2023-04-09T06:27:24;100516.94;;;13.97;50.59
24620;BME280;12763;55.802;37.404;2023-04-09T06:29:51;100515.41;;;14.14;50.00
24620;BME280;12763;55.802;37.404;2023-04-09T06:32:16;100520.94;;;14.28;49.55
24620;BME280;12763;55.802;37.404;2023-04-09T06:34:42;100519.22;;;14.27;49.20
24620;BME280;12763;55.802;37.404;2023-04-09T06:37:08;100520.91;;;14.41;48.83
24620;BME280;12763;55.802;37.404;2023-04-09T06:39:34;100518.97;;;14.86;48.01
24620;BME280;12763;55.802;37.404;2023-04-09T06:42:00;100518.34;;;15.15;47.35
24620;BME280;12763;55.802;37.404;2023-04-09T06:44:45;100519.94;;;15.29;46.98
24620;BME280;12763;55.802;37.404;2023-04-09T06:47:11;100529.03;;;15.11;47.00
24620;BME280;12763;55.802;37.404;2023-04-09T06:49:37;100523.84;;;15.21;46.88
24620;BME280;12763;55.802;37.404;2023-04-09T06:52:03;100522.34;;;15.50;46.59
24620;BME280;12763;55.802;37.404;2023-04-09T06:54:30;100524.53;;;15.42;46.36
24620;BME280;12763;55.802;37.404;2023-04-09T06:56:56;100521.41;;;15.32;46.60
24620;BME280;12763;55.802;37.404;2023-04-09T06:59:21;100516.16;;;15.17;46.52
24620;BME280;12763;55.802;37.404;2023-04-09T07:01:47;100522.00;;;15.40;46.24
24620;BME280;12763;55.802;37.404;2023-04-09T07:04:13;100528.31;;;15.22;46.54
24620;BME280;12763;55.802;37.404;2023-04-09T07:06:39;100519.13;;;15.53;46.06
24620;BME280;12763;55.802;37.404;2023-04-09T07:09:05;100520.00;;;15.72;45.48
24620;BME280;12763;55.802;37.404;2023-04-09T07:11:31;100524.94;;;15.52;45.63
24620;BME280;12763;55.802;37.404;2023-04-09T07:13:58;100528.84;;;15.13;46.31
24620;BME280;12763;55.802;37.404;2023-04-09T07:16:23;100529.03;;;15.11;46.29
24620;BME280;12763;55.802;37.404;2023-04-09T07:18:50;100534.19;;;15.39;45.67
24620;BME280;12763;55.802;37.404;2023-04-09T07:21:16;100519.53;;;15.25;45.84
24620;BME280;12763;55.802;37.404;2023-04-09T07:23:42;100525.13;;;15.19;46.01
24620;BME280;12763;55.802;37.404;2023-04-09T07:26:09;100523.03;;;15.14;45.78
24620;BME280;12763;55.802;37.404;2023-04-09T07:28:35;100532.81;;;15.23;45.77
24620;BME280;12763;55.802;37.404;2023-04-09T07:31:00;100533.59;;;15.30;45.43
24620;BME280;12763;55.802;37.404;2023-04-09T07:33:29;100536.91;;;15.46;45.04
24620;BME280;12763;55.802;37.404;2023-04-09T07:35:55;100533.44;;;15.57;44.74
24620;BME280;12763;55.802;37.404;2023-04-09T07:38:21;100529.91;;;15.68;44.76
24620;BME280;12763;55.802;37.404;2023-04-09T07:40:46;100532.69;;;15.37;45.20
24620;BME280;12763;55.802;37.404;2023-04-09T07:43:12;100533.44;;;15.57;44.93
24620;BME280;12763;55.802;37.404;2023-04-09T07:45:38;100527.59;;;15.83;44.65
24620;BME280;12763;55.802;37.404;2023-04-09T07:48:04;100522.75;;;15.97;44.05
24620;BME280;12763;55.802;37.404;2023-04-09T07:50:30;100531.03;;;15.85;44.19
24620;BME280;12763;55.802;37.404;2023-04-09T07:52:56;100527.09;;;15.93;43.95
24620;BME280;12763;55.802;37.404;2023-04-09T07:55:22;100529.72;;;16.24;43.62
24620;BME280;12763;55.802;37.404;2023-04-09T07:57:48;100529.66;;;16.30;43.29
24620;BME280;12763;55.802;37.404;2023-04-09T08:00:14;100532.00;;;16.33;43.00
24620;BME280;12763;55.802;37.404;2023-04-09T08:02:42;100520.56;;;16.23;42.87
24620;BME280;12763;55.802;37.404;2023-04-09T08:05:08;100527.66;;;16.19;43.00
24620;BME280;12763;55.802;37.404;2023-04-09T08:07:34;100516.91;;;16.23;43.02
24620;BME280;12763;55.802;37.404;2023-04-09T08:10:00;100524.88;;;16.19;42.96
24620;BME280;12763;55.802;37.404;2023-04-09T08:12:25;100519.78;;;16.34;42.88
24620;BME280;12763;55.802;37.404;2023-04-09T08:14:51;100511.88;;;16.68;42.47
24620;BME280;12763;55.802;37.404;2023-04-09T08:17:17;100516.50;;;16.74;42.35
24620;BME280;12763;55.802;37.404;2023-04-09T08:19:43;100515.88;;;16.35;42.95
24620;BME280;12763;55.802;37.404;2023-04-09T08:22:08;100510.31;;;16.72;42.28
24620;BME280;12763;55.802;37.404;2023-04-09T08:24:34;100506.75;;;16.46;42.78
24620;BME280;12763;55.802;37.404;2023-04-09T08:27:00;100502.38;;;16.87;42.14
24620;BME280;12763;55.802;37.404;2023-04-09T08:29:26;100499.53;;;17.05;41.97
24620;BME280;12763;55.802;37.404;2023-04-09T08:31:52;100505.78;;;16.89;42.30
24620;BME280;12763;55.802;37.404;2023-04-09T08:34:18;100508.59;;;16.71;42.25
24620;BME280;12763;55.802;37.404;2023-04-09T08:36:46;100501.75;;;16.37;42.74
24620;BME280;12763;55.802;37.404;2023-04-09T08:39:15;100499.09;;;16.78;41.97
24620;BME280;12763;55.802;37.404;2023-04-09T08:41:44;100503.88;;;16.71;41.89
24620;BME280;12763;55.802;37.404;2023-04-09T08:44:10;100501.19;;;16.46;42.39
24620;BME280;12763;55.802;37.404;2023-04-09T08:46:36;100502.41;;;16.69;42.14
24620;BME280;12763;55.802;37.404;2023-04-09T08:49:02;100499.94;;;16.79;42.04
24620;BME280;12763;55.802;37.404;2023-04-09T08:51:28;100496.22;;;16.67;42.38
24620;BME280;12763;55.802;37.404;2023-04-09T08:53:58;100492.16;;;17.11;41.83
24620;BME280;12763;55.802;37.404;2023-04-09T08:56:24;100495.84;;;17.23;42.02
24620;BME280;12763;55.802;37.404;2023-04-09T08:58:51;100491.91;;;17.53;41.72
24620;BME280;12763;55.802;37.404;2023-04-09T09:01:27;100495.06;;;17.69;41.33
24620;BME280;12763;55.802;37.404;2023-04-09T09:03:59;100477.72;;;17.67;40.98
24620;BME280;12763;55.802;37.404;2023-04-09T09:06:31;100488.91;;;17.78;40.71
24620;BME280;12763;55.802;37.404;2023-04-09T09:09:11;100484.16;;;17.55;40.35
24620;BME280;12763;55.802;37.404;2023-04-09T09:11:46;100488.63;;;17.15;41.29
24620;BME280;12763;55.802;37.404;2023-04-09T09:14:17;100493.44;;;17.49;40.89
24620;BME280;12763;55.802;37.404;2023-04-09T09:17:04;100478.56;;;17.79;41.18
24620;BME280;12763;55.802;37.404;2023-04-09T09:19:32;100492.00;;;17.47;40.99
24620;BME280;12763;55.802;37.404;2023-04-09T09:22:02;100478.91;;;17.71;41.19
24620;BME280;12763;55.802;37.404;2023-04-09T09:24:29;100485.63;;;17.70;40.86
24620;BME280;12763;55.802;37.404;2023-04-09T09:26:55;100489.41;;;17.45;40.79
24620;BME280;12763;55.802;37.404;2023-04-09T09:29:21;100481.06;;;17.34;40.87
24620;BME280;12763;55.802;37.404;2023-04-09T09:31:49;100481.28;;;17.32;41.41
24620;BME280;12763;55.802;37.404;2023-04-09T09:34:16;100486.56;;;17.87;40.44
24620;BME280;12763;55.802;37.404;2023-04-09T09:36:43;100478.66;;;18.18;39.74
24620;BME280;12763;55.802;37.404;2023-04-09T09:39:11;100471.75;;;18.61;39.06
24620;BME280;12763;55.802;37.404;2023-04-09T09:41:38;100469.25;;;18.36;39.26
24620;BME280;12763;55.802;37.404;2023-04-09T09:44:05;100480.16;;;17.86;39.43
24620;BME280;12763;55.802;37.404;2023-04-09T09:46:40;100474.59;;;18.49;38.33
24620;BME280;12763;55.802;37.404;2023-04-09T09:49:09;100471.31;;;18.52;38.49
24620;BME280;12763;55.802;37.404;2023-04-09T09:51:36;100459.91;;;18.70;37.94
24620;BME280;12763;55.802;37.404;2023-04-09T09:54:06;100472.50;;;18.56;37.72
24620;BME280;12763;55.802;37.404;2023-04-09T09:56:37;100466.34;;;18.31;37.93
24620;BME280;12763;55.802;37.404;2023-04-09T09:59:19;100481.13;;;18.55;37.53
24620;BME280;12763;55.802;37.404;2023-04-09T10:01:55;100473.94;;;19.32;36.66
24620;BME280;12763;55.802;37.404;2023-04-09T10:04:27;100476.47;;;19.33;36.42
24620;BME280;12763;55.802;37.404;2023-04-09T10:06:53;100467.25;;;18.60;37.78
24620;BME280;12763;55.802;37.404;2023-04-09T10:09:22;100470.28;;;18.07;38.52
24620;BME280;12763;55.802;37.404;2023-04-09T10:11:48;100454.47;;;18.24;38.21
24620;BME280;12763;55.802;37.404;2023-04-09T10:14:15;100461.75;;;18.25;38.28
24620;BME280;12763;55.802;37.404;2023-04-09T10:16:42;100467.44;;;18.42;37.75
24620;BME280;12763;55.802;37.404;2023-04-09T10:19:08;100465.47;;;18.54;37.81
24620;BME280;12763;55.802;37.404;2023-04-09T10:24:13;100454.81;;;18.67;37.84
24620;BME280;12763;55.802;37.404;2023-04-09T10:26:41;100453.88;;;18.62;37.96
24620;BME280;12763;55.802;37.404;2023-04-09T10:29:10;100452.88;;;18.68;38.08
24620;BME280;12763;55.802;37.404;2023-04-09T10:31:53;100454.34;;;18.31;38.13
24620;BME280;12763;55.802;37.404;2023-04-09T10:34:23;100456.47;;;18.00;39.07
24620;BME280;12763;55.802;37.404;2023-04-09T10:36:58;100448.03;;;18.24;38.71
24620;BME280;12763;55.802;37.404;2023-04-09T10:39:29;100459.97;;;18.07;38.55
24620;BME280;12763;55.802;37.404;2023-04-09T10:42:00;100456.22;;;18.02;38.49
24620;BME280;12763;55.802;37.404;2023-04-09T10:44:32;100460.09;;;18.01;38.18
24620;BME280;12763;55.802;37.404;2023-04-09T10:47:02;100463.25;;;18.04;38.56
24620;BME280;12763;55.802;37.404;2023-04-09T10:49:37;100451.09;;;17.99;38.51
24620;BME280;12763;55.802;37.404;2023-04-09T10:52:08;100458.28;;;17.95;38.60
24620;BME280;12763;55.802;37.404;2023-04-09T10:54:43;100453.78;;;17.94;39.03
24620;BME280;12763;55.802;37.404;2023-04-09T10:57:19;100456.38;;;17.72;39.27
24620;BME280;12763;55.802;37.404;2023-04-09T10:59:48;100456.72;;;17.76;39.29
24620;BME280;12763;55.802;37.404;2023-04-09T11:05:25;100455.84;;;17.98;38.75
24620;BME280;12763;55.802;37.404;2023-04-09T11:10:22;100453.31;;;17.97;38.61
24620;BME280;12763;55.802;37.404;2023-04-09T11:12:48;100454.75;;;18.11;38.69
24620;BME280;12763;55.802;37.404;2023-04-09T11:15:15;100453.38;;;18.25;38.51
24620;BME280;12763;55.802;37.404;2023-04-09T11:17:42;100446.38;;;18.39;38.18
24620;BME280;12763;55.802;37.404;2023-04-09T11:20:09;100441.41;;;18.41;38.05
24620;BME280;12763;55.802;37.404;2023-04-09T11:22:35;100451.19;;;18.27;38.32
24620;BME280;12763;55.802;37.404;2023-04-09T11:25:01;100454.41;;;18.47;38.16
24620;BME280;12763;55.802;37.404;2023-04-09T11:27:28;100446.88;;;18.76;37.71
24620;BME280;12763;55.802;37.404;2023-04-09T11:29:55;100445.22;;;19.53;36.63
24620;BME280;12763;55.802;37.404;2023-04-09T11:32:20;100443.09;;;20.37;35.70
24620;BME280;12763;55.802;37.404;2023-04-09T11:34:46;100443.66;;;22.14;33.82
24620;BME280;12763;55.802;37.404;2023-04-09T11:37:14;100438.72;;;23.59;31.69
24620;BME280;12763;55.802;37.404;2023-04-09T11:39:44;100430.25;;;24.74;30.26
24620;BME280;12763;55.802;37.404;2023-04-09T11:42:14;100435.91;;;25.56;29.25
24620;BME280;12763;55.802;37.404;2023-04-09T11:44:40;100430.69;;;24.37;30.64
24620;BME280;12763;55.802;37.404;2023-04-09T11:47:07;100429.94;;;23.00;31.69
24620;BME280;12763;55.802;37.404;2023-04-09T11:49:34;100426.66;;;21.89;32.57
24620;BME280;12763;55.802;37.404;2023-04-09T11:52:00;100430.25;;;21.48;32.84
24620;BME280;12763;55.802;37.404;2023-04-09T11:54:34;100430.63;;;20.06;33.74
24620;BME280;12763;55.802;37.404;2023-04-09T11:57:03;100425.78;;;19.30;35.23
24620;BME280;12763;55.802;37.404;2023-04-09T11:59:29;100427.22;;;18.71;35.81
24620;BME280;12763;55.802;37.404;2023-04-09T12:01:58;100426.00;;;18.67;35.66
24620;BME280;12763;55.802;37.404;2023-04-09T12:04:24;100427.31;;;18.48;35.97
24620;BME280;12763;55.802;37.404;2023-04-09T12:06:50;100424.44;;;18.31;36.39
24620;BME280;12763;55.802;37.404;2023-04-09T12:09:16;100428.63;;;18.17;36.35
24620;BME280;12763;55.802;37.404;2023-04-09T12:11:43;100423.66;;;18.07;36.70
24620;BME280;12763;55.802;37.404;2023-04-09T12:14:13;100423.47;;;18.26;36.79
24620;BME280;12763;55.802;37.404;2023-04-09T12:16:43;100414.41;;;18.07;36.69
24620;BME280;12763;55.802;37.404;2023-04-09T12:19:11;100423.38;;;18.09;36.81
24620;BME280;12763;55.802;37.404;2023-04-09T12:21:53;100418.94;;;17.96;37.24
24620;BME280;12763;55.802;37.404;2023-04-09T12:24:22;100423.91;;;18.06;36.99
24620;BME280;12763;55.802;37.404;2023-04-09T12:26:49;100426.56;;;18.12;37.06
24620;BME280;12763;55.802;37.404;2023-04-09T12:29:17;100423.78;;;18.01;37.03
24620;BME280;12763;55.802;37.404;2023-04-09T12:31:44;100412.88;;;17.99;37.04
24620;BME280;12763;55.802;37.404;2023-04-09T12:34:10;100423.94;;;17.83;37.10
24620;BME280;12763;55.802;37.404;2023-04-09T12:36:37;100424.22;;;17.70;37.27
24620;BME280;12763;55.802;37.404;2023-04-09T12:39:03;100423.34;;;17.69;37.52
24620;BME280;12763;55.802;37.404;2023-04-09T12:41:30;100423.69;;;17.84;37.61
24620;BME280;12763;55.802;37.404;2023-04-09T12:43:56;100415.28;;;17.96;37.53
24620;BME280;12763;55.802;37.404;2023-04-09T12:46:22;100419.06;;;17.90;37.85
24620;BME280;12763;55.802;37.404;2023-04-09T12:48:47;100420.66;;;17.97;37.58
24620;BME280;12763;55.802;37.404;2023-04-09T12:51:13;100420.66;;;17.97;37.46
24620;BME280;12763;55.802;37.404;2023-04-09T12:53:39;100416.03;;;18.03;37.55
24620;BME280;12763;55.802;37.404;2023-04-09T12:56:06;100414.41;;;18.07;37.70
24620;BME280;12763;55.802;37.404;2023-04-09T12:58:32;100411.53;;;18.02;37.78
24620;BME280;12763;55.802;37.404;2023-04-09T13:00:58;100417.13;;;17.79;38.05
24620;BME280;12763;55.802;37.404;2023-04-09T13:03:24;100422.38;;;17.75;37.92